createdAt,value
2023-04-29T00:03:58.857Z,75.56
2023-04-29T00:12:15.741Z,76.44
2023-04-29T00:16:18.732Z,76.85
2023-04-29T00:20:24.128Z,77.00
2023-04-29T00:24:27.745Z,77.09
2023-04-29T00:28:31.970Z,76.88
2023-04-29T00:32:35.596Z,77.06
2023-04-29T00:36:42.229Z,76.76
2023-04-29T00:40:46.362Z,76.68
2023-04-29T00:44:49.243Z,76.58
2023-04-29T00:48:53.054Z,76.30
2023-04-29T00:52:58.295Z,76.07
2023-04-29T00:57:02.790Z,76.31
2023-04-29T01:01:06.565Z,76.01
2023-04-29T01:05:09.814Z,76.43
2023-04-29T01:09:28.428Z,76.29
2023-04-29T01:13:35.795Z,76.32
2023-04-29T01:17:43.549Z,76.51
2023-04-29T01:21:50.703Z,76.20
2023-04-29T01:25:56.291Z,76.22
2023-04-29T01:30:06.053Z,76.50
2023-04-29T01:34:12.657Z,77.02
2023-04-29T01:38:26.622Z,76.86
2023-04-29T01:42:39.459Z,76.65
2023-04-29T01:46:45.613Z,76.93
2023-04-29T01:50:49.548Z,77.05
2023-04-29T01:54:52.448Z,77.43
2023-04-29T01:58:57.535Z,77.57
2023-04-29T02:03:00.899Z,77.70
2023-04-29T02:07:04.604Z,77.53
2023-04-29T02:11:07.625Z,77.31
2023-04-29T02:15:14.140Z,77.21
2023-04-29T02:19:17.458Z,77.32
2023-04-29T02:23:21.477Z,77.51
2023-04-29T02:27:25.077Z,77.79
2023-04-29T02:31:30.752Z,77.89
2023-04-29T02:35:34.661Z,78.26
2023-04-29T02:39:37.626Z,78.39
2023-04-29T02:43:42.010Z,78.45
2023-04-29T02:47:47.164Z,78.08
2023-04-29T02:51:51.044Z,77.32
2023-04-29T02:55:54.721Z,77.00
2023-04-29T02:59:58.160Z,76.72
2023-04-29T03:04:03.603Z,76.66
2023-04-29T03:08:06.656Z,76.63
2023-04-29T03:12:10.441Z,77.42
2023-04-29T03:16:15.351Z,77.72
2023-04-29T03:20:21.142Z,77.55
2023-04-29T03:24:24.085Z,77.14
2023-04-29T03:28:28.321Z,76.98
2023-04-29T03:32:31.461Z,77.20
2023-04-29T03:36:38.302Z,77.14
2023-04-29T03:40:41.848Z,76.93
2023-04-29T03:44:45.216Z,77.28
2023-04-29T03:48:48.386Z,77.49
2023-04-29T03:52:53.743Z,77.37
2023-04-29T03:56:57.327Z,77.27
2023-04-29T04:01:00.311Z,77.60
2023-04-29T04:05:04.124Z,77.98
2023-04-29T04:09:09.483Z,77.77
2023-04-29T04:13:12.943Z,77.55
2023-04-29T04:17:16.281Z,77.21
2023-04-29T04:21:19.785Z,77.03
2023-04-29T04:25:24.258Z,77.40
2023-04-29T04:29:27.972Z,77.47
2023-04-29T04:33:30.854Z,77.22
2023-04-29T04:37:34.970Z,77.37
2023-04-29T04:41:40.169Z,76.98
2023-04-29T04:45:43.549Z,77.13
2023-04-29T04:49:47.210Z,76.62
2023-04-29T04:53:51.155Z,76.63
2023-04-29T04:57:55.878Z,76.79
2023-04-29T05:02:00.736Z,76.30
2023-04-29T05:06:05.030Z,76.58
2023-04-29T05:10:10.220Z,76.53
2023-04-29T05:14:15.406Z,76.54
2023-04-29T05:18:19.256Z,76.36
2023-04-29T05:22:22.624Z,75.42
2023-04-29T05:26:26.085Z,76.17
2023-04-29T05:30:31.044Z,75.05
2023-04-29T05:34:34.785Z,75.08
2023-04-29T05:38:38.364Z,75.27
2023-04-29T05:42:42.449Z,74.44
2023-04-29T05:46:48.963Z,72.93
2023-04-29T05:50:52.690Z,73.37
2023-04-29T05:54:55.925Z,71.73
2023-04-29T05:58:59.742Z,72.33
2023-04-29T06:03:04.894Z,72.41
2023-04-29T06:07:10.255Z,71.42
2023-04-29T06:11:13.142Z,69.55
2023-04-29T06:15:16.915Z,69.89
2023-04-29T06:19:22.624Z,69.19
2023-04-29T06:23:25.777Z,70.84
2023-04-29T06:27:29.979Z,66.95
2023-04-29T06:31:33.183Z,67.33
2023-04-29T06:35:41.536Z,68.36
2023-04-29T06:39:44.482Z,66.73
2023-04-29T06:43:48.991Z,67.14
2023-04-29T06:47:52.526Z,66.50
2023-04-29T06:51:57.300Z,66.95
2023-04-29T06:56:00.214Z,66.58
2023-04-29T07:00:04.406Z,66.20
2023-04-29T07:04:07.769Z,67.65
2023-04-29T07:08:14.707Z,67.34
2023-04-29T07:12:17.644Z,66.06
2023-04-29T07:16:27.152Z,66.80
2023-04-29T07:20:30.329Z,66.00
2023-04-29T07:24:35.283Z,65.43
2023-04-29T07:28:39.334Z,64.71
2023-04-29T07:32:46.762Z,63.75
2023-04-29T07:36:49.924Z,63.80
2023-04-29T07:40:55.252Z,62.76
2023-04-29T07:44:58.976Z,63.07
2023-04-29T07:49:02.404Z,62.31
2023-04-29T07:53:05.649Z,61.47
2023-04-29T07:57:11.094Z,62.12
2023-04-29T08:01:15.666Z,62.71
2023-04-29T08:05:20.335Z,62.88
2023-04-29T08:09:23.686Z,61.62
2023-04-29T08:13:28.887Z,61.71
2023-04-29T08:17:32.010Z,60.91
2023-04-29T08:21:35.625Z,60.01
2023-04-29T08:25:46.578Z,61.09
2023-04-29T08:29:52.231Z,59.21
2023-04-29T08:33:55.230Z,59.33
2023-04-29T08:37:58.617Z,58.75
2023-04-29T08:42:02.050Z,58.89
2023-04-29T08:46:08.430Z,59.30
2023-04-29T08:50:15.308Z,58.65
2023-04-29T08:54:19.912Z,59.50
2023-04-29T08:58:26.758Z,58.41
2023-04-29T09:02:32.030Z,60.48
2023-04-29T09:06:36.104Z,59.79
2023-04-29T09:10:41.503Z,60.41
2023-04-29T09:14:44.903Z,59.32
2023-04-29T09:18:52.296Z,60.28
2023-04-29T09:22:57.010Z,60.11
2023-04-29T09:27:00.921Z,58.67
2023-04-29T09:31:06.848Z,59.73
2023-04-29T09:35:28.913Z,62.07
2023-04-29T09:39:42.689Z,60.65
2023-04-29T09:43:48.643Z,56.32
2023-04-29T09:48:03.864Z,58.87
2023-04-29T09:52:10.140Z,54.32
2023-04-29T09:56:13.723Z,54.10
2023-04-29T10:00:19.020Z,55.74
2023-04-29T10:04:24.585Z,55.89
2023-04-29T10:08:31.566Z,55.71
2023-04-29T10:12:36.550Z,54.82
2023-04-29T10:16:47.102Z,56.84
2023-04-29T10:20:50.807Z,55.65
2023-04-29T10:24:59.696Z,53.69
2023-04-29T10:29:04.216Z,54.86
2023-04-29T10:33:10.120Z,51.16
2023-04-29T10:37:14.229Z,49.50
2023-04-29T10:41:25.223Z,51.59
2023-04-29T10:45:32.242Z,52.76
2023-04-29T10:49:36.838Z,50.08
2023-04-29T10:54:02.035Z,52.69
2023-04-29T10:58:08.730Z,52.14
2023-04-29T11:02:16.088Z,50.86
2023-04-29T11:06:20.671Z,51.78
2023-04-29T11:10:39.382Z,55.33
2023-04-29T11:14:51.675Z,51.67
2023-04-29T11:19:09.025Z,51.73
2023-04-29T11:23:12.842Z,47.50
2023-04-29T11:27:17.082Z,49.97
2023-04-29T11:31:25.818Z,49.51
2023-04-29T11:35:29.995Z,49.14
2023-04-29T11:39:37.002Z,50.31
2023-04-29T11:43:40.720Z,47.01
2023-04-29T11:47:47.299Z,48.83
2023-04-29T11:51:50.358Z,45.03
2023-04-29T11:55:54.974Z,47.57
2023-04-29T11:59:58.988Z,45.60
2023-04-29T12:04:05.604Z,47.95
2023-04-29T12:08:09.098Z,45.08
2023-04-29T12:12:24.413Z,47.10
2023-04-29T12:16:38.996Z,47.04
2023-04-29T12:20:56.392Z,50.66
2023-04-29T12:25:21.190Z,48.74
2023-04-29T12:29:42.284Z,47.34
2023-04-29T12:34:17.091Z,45.30
2023-04-29T12:38:27.334Z,49.56
2023-04-29T12:42:33.791Z,46.16
2023-04-29T12:46:38.094Z,41.93
2023-04-29T12:50:41.192Z,43.71
2023-04-29T12:54:49.903Z,44.31
2023-04-29T12:58:53.529Z,43.39
2023-04-29T13:02:57.081Z,47.38
2023-04-29T13:07:01.193Z,41.12
2023-04-29T13:11:06.285Z,42.03
2023-04-29T13:15:11.690Z,44.62
2023-04-29T13:19:28.282Z,44.98
2023-04-29T13:23:37.585Z,43.12
2023-04-29T13:27:44.153Z,44.14
2023-04-29T13:32:03.806Z,40.87
2023-04-29T13:36:13.891Z,44.46
2023-04-29T13:40:20.430Z,43.30
2023-04-29T13:44:34.348Z,44.42
2023-04-29T13:53:30.378Z,44.09
2023-04-29T14:02:23.486Z,45.78
2023-04-29T14:06:19.188Z,40.71
2023-04-29T14:10:22.787Z,40.04
2023-04-29T14:14:37.851Z,39.98
2023-04-29T14:18:42.875Z,39.60
2023-04-29T14:23:00.035Z,39.13
2023-04-29T14:27:04.232Z,40.11
2023-04-29T14:31:07.751Z,37.00
2023-04-29T14:35:13.032Z,42.00
2023-04-29T14:39:17.098Z,40.86
2023-04-29T14:43:23.690Z,40.07
2023-04-29T14:47:27.040Z,39.44
2023-04-29T14:51:31.860Z,41.35
2023-04-29T14:55:34.708Z,40.16
2023-04-29T14:59:37.882Z,38.34
2023-04-29T15:03:44.169Z,38.54
2023-04-29T15:07:49.538Z,41.20
2023-04-29T15:11:52.444Z,41.51
2023-04-29T15:15:56.011Z,42.21
2023-04-29T15:19:58.905Z,40.26
2023-04-29T15:24:04.895Z,41.80
2023-04-29T15:28:08.008Z,41.70
2023-04-29T15:32:12.802Z,41.92
2023-04-29T15:36:16.505Z,42.00
2023-04-29T15:40:21.187Z,44.44
2023-04-29T15:44:24.107Z,41.50
2023-04-29T15:48:27.631Z,41.92
2023-04-29T15:52:30.569Z,41.56
2023-04-29T15:56:35.514Z,42.41
2023-04-29T16:00:39.027Z,42.70
2023-04-29T16:04:42.564Z,42.36
2023-04-29T16:08:45.881Z,43.93
2023-04-29T16:12:51.241Z,42.57
2023-04-29T16:16:54.311Z,42.10
2023-04-29T16:20:58.179Z,42.14
2023-04-29T16:25:01.900Z,42.99
2023-04-29T16:29:07.521Z,42.93
2023-04-29T16:33:14.149Z,44.43
2023-04-29T16:37:18.471Z,43.70
2023-04-29T16:41:22.862Z,44.83
2023-04-29T16:45:29.349Z,45.26
2023-04-29T16:49:35.376Z,44.27
2023-04-29T16:53:39.106Z,44.61
2023-04-29T16:57:42.203Z,46.24
2023-04-29T17:01:59.893Z,49.09
2023-04-29T17:06:03.291Z,46.79
2023-04-29T17:10:08.215Z,46.72
2023-04-29T17:14:11.271Z,47.81
2023-04-29T17:18:16.565Z,48.03
2023-04-29T17:22:19.918Z,48.00
2023-04-29T17:26:23.570Z,49.18
2023-04-29T17:30:43.464Z,49.19
2023-04-29T17:39:10.058Z,51.38
2023-04-29T17:43:13.510Z,53.43
2023-04-29T17:47:17.437Z,53.86
2023-04-29T17:51:22.924Z,54.78
2023-04-29T17:55:26.253Z,55.53
2023-04-29T17:59:31.189Z,55.65
2023-04-29T18:03:34.266Z,56.50
2023-04-29T18:07:39.103Z,57.14
2023-04-29T18:11:42.538Z,57.73
2023-04-29T18:15:46.046Z,58.44
2023-04-29T18:19:50.615Z,58.73
2023-04-29T18:23:55.074Z,59.63
2023-04-29T18:28:13.130Z,60.42
2023-04-29T18:32:22.086Z,60.97
2023-04-29T18:36:25.185Z,61.16
2023-04-29T18:40:30.154Z,61.40
2023-04-29T18:44:34.266Z,61.54
2023-04-29T18:48:38.981Z,61.32
2023-04-29T18:52:42.684Z,61.77
2023-04-29T18:56:49.826Z,61.80
2023-04-29T19:00:53.172Z,61.48
2023-04-29T19:04:56.870Z,61.81
2023-04-29T19:09:00.272Z,61.71
2023-04-29T19:13:05.354Z,61.76
2023-04-29T19:17:08.452Z,61.70
2023-04-29T19:21:12.444Z,61.56
2023-04-29T19:25:16.235Z,62.30
2023-04-29T19:29:21.630Z,62.40
2023-04-29T19:33:24.629Z,60.60
2023-04-29T19:37:27.940Z,60.72
2023-04-29T19:41:34.792Z,59.49
2023-04-29T19:45:40.109Z,60.25
2023-04-29T19:49:43.557Z,61.17
2023-04-29T19:53:47.963Z,59.61
2023-04-29T19:57:52.173Z,59.32
2023-04-29T20:01:57.564Z,60.49
2023-04-29T20:06:01.573Z,60.32
2023-04-29T20:10:05.677Z,61.25
2023-04-29T20:14:09.419Z,60.55
2023-04-29T20:18:14.843Z,59.76
2023-04-29T20:22:17.977Z,58.43
2023-04-29T20:26:23.341Z,59.68
2023-04-29T20:30:27.174Z,60.76
2023-04-29T20:34:32.726Z,60.55
2023-04-29T20:38:36.322Z,61.17
2023-04-29T20:42:39.980Z,60.93
2023-04-29T20:46:44.192Z,61.23
2023-04-29T20:50:49.522Z,61.71
2023-04-29T20:54:53.963Z,61.59
2023-04-29T20:58:58.995Z,61.85
2023-04-29T21:03:02.454Z,62.11
2023-04-29T21:07:07.051Z,62.58
2023-04-29T21:11:10.737Z,62.50
2023-04-29T21:15:13.987Z,63.10
2023-04-29T21:19:17.541Z,63.55
2023-04-29T21:23:24.399Z,64.16
2023-04-29T21:27:27.463Z,64.46
2023-04-29T21:31:32.048Z,64.75
2023-04-29T21:35:35.796Z,65.47
2023-04-29T21:39:41.473Z,65.22
2023-04-29T21:43:45.451Z,65.18
2023-04-29T21:47:49.894Z,65.03
2023-04-29T21:51:53.068Z,65.26
2023-04-29T21:55:58.119Z,64.87
2023-04-29T22:00:01.807Z,65.06
2023-04-29T22:04:04.689Z,64.65
2023-04-29T22:08:08.768Z,63.50
2023-04-29T22:12:13.164Z,62.28
2023-04-29T22:16:16.540Z,61.46
2023-04-29T22:20:19.690Z,61.38
2023-04-29T22:24:23.323Z,61.18
2023-04-29T22:28:27.860Z,60.63
2023-04-29T22:32:31.439Z,58.37
2023-04-29T22:36:36.976Z,59.86
2023-04-29T22:40:40.485Z,58.83
2023-04-29T22:44:46.295Z,59.89
2023-04-29T22:48:49.737Z,59.36
2023-04-29T22:52:52.936Z,59.35
2023-04-29T22:56:57.255Z,58.69
2023-04-29T23:01:02.564Z,59.07
2023-04-29T23:05:08.169Z,59.04
2023-04-29T23:09:11.705Z,60.15
2023-04-29T23:13:15.396Z,59.93
2023-04-29T23:17:21.472Z,60.11
2023-04-29T23:21:29.185Z,59.60
2023-04-29T23:25:32.421Z,59.29
2023-04-29T23:29:35.939Z,59.61
2023-04-29T23:33:40.248Z,59.53
2023-04-29T23:37:43.970Z,60.16
2023-04-29T23:41:47.284Z,58.83
2023-04-29T23:45:51.207Z,59.14
2023-04-29T23:49:55.897Z,58.81
2023-04-29T23:54:01.435Z,58.74
2023-04-29T23:58:04.360Z,59.14
